createdAt,value
2022-09-27T00:01:45.847Z,10.30
2022-09-27T00:04:14.136Z,10.30
2022-09-27T00:06:42.116Z,10.30
2022-09-27T00:09:12.296Z,10.30
2022-09-27T00:11:42.602Z,10.30
2022-09-27T00:14:12.554Z,10.30
2022-09-27T00:16:42.754Z,10.40
2022-09-27T00:19:14.099Z,10.40
2022-09-27T00:21:43.396Z,10.40
2022-09-27T00:24:15.208Z,10.40
2022-09-27T00:26:43.200Z,10.40
2022-09-27T00:29:11.675Z,10.40
2022-09-27T00:31:40.286Z,10.30
2022-09-27T00:34:12.401Z,10.30
2022-09-27T00:36:40.446Z,10.40
2022-09-27T00:39:08.599Z,10.30
2022-09-27T00:41:39.035Z,10.40
2022-09-27T00:45:02.437Z,10.30
2022-09-27T00:47:38.242Z,10.40
2022-09-27T00:50:11.799Z,10.30
2022-09-27T00:52:46.765Z,10.30
2022-09-27T00:55:17.936Z,10.40
2022-09-27T00:57:51.622Z,10.30
2022-09-27T01:00:20.431Z,10.30
2022-09-27T01:02:51.354Z,10.40
2022-09-27T01:05:22.092Z,10.40
2022-09-27T01:07:50.085Z,10.40
2022-09-27T01:10:20.397Z,10.40
2022-09-27T01:13:02.064Z,10.40
2022-09-27T01:15:37.990Z,10.40
2022-09-27T01:18:18.411Z,10.40
2022-09-27T01:21:22.322Z,10.40
2022-09-27T01:24:13.442Z,10.40
2022-09-27T01:27:22.633Z,10.30
2022-09-27T01:30:12.019Z,10.40
2022-09-27T01:32:52.900Z,10.30
2022-09-27T01:35:30.219Z,10.30
2022-09-27T01:38:11.405Z,10.30
2022-09-27T01:40:45.743Z,10.40
2022-09-27T01:43:37.540Z,10.40
2022-09-27T01:46:12.177Z,10.40
2022-09-27T01:49:03.709Z,10.40
2022-09-27T01:51:36.416Z,10.40
2022-09-27T01:54:06.819Z,10.40
2022-09-27T01:56:58.427Z,10.30
2022-09-27T01:59:34.529Z,10.30
2022-09-27T02:02:27.836Z,10.30
2022-09-27T02:05:23.496Z,10.30
2022-09-27T02:07:59.995Z,10.30
2022-09-27T02:10:34.047Z,10.30
2022-09-27T02:13:16.802Z,10.30
2022-09-27T02:15:53.551Z,10.30
2022-09-27T02:18:39.586Z,10.30
2022-09-27T02:21:11.681Z,10.30
2022-09-27T02:23:44.149Z,10.30
2022-09-27T02:26:18.647Z,10.30
2022-09-27T02:28:51.732Z,10.40
2022-09-27T02:31:27.316Z,10.30
2022-09-27T02:34:03.144Z,10.30
2022-09-27T02:36:31.846Z,10.20
2022-09-27T02:39:00.199Z,10.10
2022-09-27T02:41:29.954Z,10.00
2022-09-27T02:44:01.649Z,10.00
2022-09-27T02:46:49.075Z,10.00
2022-09-27T02:49:30.993Z,9.90
2022-09-27T02:52:28.760Z,9.90
2022-09-27T02:55:08.081Z,9.90
2022-09-27T02:58:02.980Z,9.90
2022-09-27T03:00:49.431Z,9.80
2022-09-27T03:03:44.896Z,9.80
2022-09-27T03:06:17.484Z,9.80
2022-09-27T03:08:46.749Z,9.70
2022-09-27T03:11:14.866Z,9.60
2022-09-27T03:14:06.815Z,9.60
2022-09-27T03:16:32.330Z,9.60
2022-09-27T03:19:13.368Z,9.50
2022-09-27T03:22:01.185Z,9.50
2022-09-27T03:24:29.320Z,9.50
2022-09-27T03:26:57.570Z,9.50
2022-09-27T03:29:25.750Z,9.50
2022-09-27T03:32:03.199Z,9.50
2022-09-27T03:34:51.900Z,9.50
2022-09-27T03:37:21.322Z,9.50
2022-09-27T03:39:49.558Z,9.50
2022-09-27T03:42:17.703Z,9.50
2022-09-27T03:44:51.211Z,9.60
2022-09-27T03:47:19.830Z,9.60
2022-09-27T03:49:48.371Z,9.60
2022-09-27T03:52:16.617Z,9.60
2022-09-27T03:54:46.067Z,9.60
2022-09-27T03:57:14.059Z,9.60
2022-09-27T03:59:42.378Z,9.60
2022-09-27T04:02:39.473Z,9.60
2022-09-27T04:05:25.965Z,9.70
2022-09-27T04:07:58.243Z,9.70
2022-09-27T04:10:27.727Z,9.70
2022-09-27T04:12:55.945Z,9.70
2022-09-27T04:15:26.020Z,9.80
2022-09-27T04:17:54.023Z,9.80
2022-09-27T04:20:34.308Z,9.80
2022-09-27T04:23:06.527Z,9.80
2022-09-27T04:25:37.484Z,9.80
2022-09-27T04:28:13.000Z,9.90
2022-09-27T04:30:41.346Z,9.90
2022-09-27T04:33:29.339Z,9.90
2022-09-27T04:36:25.728Z,9.90
2022-09-27T04:39:08.828Z,9.90
2022-09-27T04:41:44.988Z,9.90
2022-09-27T04:44:13.341Z,9.90
2022-09-27T04:46:46.630Z,10.00
2022-09-27T04:49:17.684Z,9.90
2022-09-27T04:51:46.589Z,9.90
2022-09-27T04:54:14.571Z,9.90
2022-09-27T04:56:53.882Z,9.90
2022-09-27T04:59:22.216Z,10.00
2022-09-27T05:01:50.438Z,10.00
2022-09-27T05:04:31.876Z,10.00
2022-09-27T05:07:00.946Z,10.00
2022-09-27T05:09:40.837Z,10.00
2022-09-27T05:12:11.108Z,10.00
2022-09-27T05:14:58.560Z,9.90
2022-09-27T05:17:45.240Z,9.80
2022-09-27T05:20:31.830Z,9.80
2022-09-27T05:23:11.074Z,9.80
2022-09-27T05:25:39.136Z,9.90
2022-09-27T05:28:09.460Z,9.80
2022-09-27T05:30:37.745Z,9.80
2022-09-27T05:33:10.245Z,9.90
2022-09-27T05:35:54.219Z,9.90
2022-09-27T05:38:25.622Z,9.90
2022-09-27T05:40:57.102Z,9.90
2022-09-27T05:43:28.373Z,9.90
2022-09-27T05:45:59.025Z,10.00
2022-09-27T05:48:28.487Z,10.00
2022-09-27T05:51:01.834Z,10.00
2022-09-27T05:53:32.605Z,9.90
2022-09-27T05:56:04.083Z,9.90
2022-09-27T05:58:51.144Z,10.00
2022-09-27T06:01:20.615Z,10.00
2022-09-27T06:04:11.515Z,10.00
2022-09-27T06:06:58.912Z,10.00
2022-09-27T06:09:28.130Z,10.00
2022-09-27T06:11:57.277Z,10.00
2022-09-27T06:14:27.702Z,10.10
2022-09-27T06:17:07.271Z,10.10
2022-09-27T06:19:38.374Z,10.00
2022-09-27T06:22:06.499Z,10.00
2022-09-27T06:24:44.265Z,10.00
2022-09-27T06:27:20.448Z,10.00
2022-09-27T06:29:58.448Z,10.00
2022-09-27T06:32:48.066Z,10.00
2022-09-27T06:35:28.547Z,10.00
2022-09-27T06:37:57.159Z,10.10
2022-09-27T06:40:27.342Z,10.10
2022-09-27T06:43:20.756Z,10.20
2022-09-27T06:46:09.214Z,10.20
2022-09-27T06:48:56.572Z,10.10
2022-09-27T06:51:25.071Z,10.10
2022-09-27T06:53:53.245Z,10.00
2022-09-27T06:56:21.746Z,9.90
2022-09-27T06:59:09.609Z,9.90
2022-09-27T07:01:45.243Z,9.90
2022-09-27T07:04:31.951Z,9.80
2022-09-27T07:07:17.705Z,9.90
2022-09-27T07:09:48.095Z,9.90
2022-09-27T07:12:16.565Z,9.90
2022-09-27T07:14:44.790Z,9.90
2022-09-27T07:17:19.237Z,9.90
2022-09-27T07:19:49.415Z,9.90
2022-09-27T07:22:17.856Z,10.00
2022-09-27T07:24:49.504Z,10.00
2022-09-27T07:27:18.171Z,10.00
2022-09-27T07:29:47.058Z,10.00
2022-09-27T07:32:15.183Z,10.00
2022-09-27T07:34:45.052Z,10.10
2022-09-27T07:37:14.048Z,10.10
2022-09-27T07:39:42.286Z,10.10
2022-09-27T07:42:10.291Z,9.90
2022-09-27T07:44:46.553Z,9.90
2022-09-27T07:47:39.272Z,9.90
2022-09-27T07:50:13.101Z,10.00
2022-09-27T07:53:13.906Z,10.10
2022-09-27T07:56:08.466Z,10.10
2022-09-27T07:58:36.680Z,10.10
2022-09-27T08:01:08.091Z,10.20
2022-09-27T08:03:36.396Z,10.20
2022-09-27T08:06:05.935Z,10.30
2022-09-27T08:08:34.097Z,10.50
2022-09-27T08:11:14.480Z,10.50
2022-09-27T08:13:42.952Z,10.50
2022-09-27T08:16:12.158Z,10.50
2022-09-27T08:19:00.424Z,10.50
2022-09-27T08:21:59.128Z,10.50
2022-09-27T08:24:36.106Z,10.40
2022-09-27T08:27:10.724Z,10.40
2022-09-27T08:29:52.073Z,10.50
2022-09-27T08:32:23.278Z,10.60
2022-09-27T08:34:51.874Z,10.80
2022-09-27T08:37:23.991Z,11.10
2022-09-27T08:39:52.063Z,11.30
2022-09-27T08:42:32.664Z,11.40
2022-09-27T08:45:08.260Z,11.40
2022-09-27T08:47:41.009Z,11.40
2022-09-27T08:50:21.160Z,11.40
2022-09-27T08:52:57.577Z,11.30
2022-09-27T08:55:31.443Z,11.20
2022-09-27T08:58:00.520Z,11.20
2022-09-27T09:00:30.775Z,11.30
2022-09-27T09:03:03.572Z,11.30
2022-09-27T09:05:38.025Z,11.30
2022-09-27T09:08:22.696Z,11.30
2022-09-27T09:11:13.574Z,11.20
2022-09-27T09:14:12.765Z,11.20
2022-09-27T09:16:47.274Z,11.10
2022-09-27T09:19:31.932Z,10.90
2022-09-27T09:22:36.697Z,10.90
2022-09-27T09:25:23.971Z,10.70
2022-09-27T09:28:04.668Z,10.70
2022-09-27T09:30:42.266Z,10.80
2022-09-27T09:33:22.974Z,10.80
2022-09-27T09:35:58.793Z,10.80
2022-09-27T09:38:37.821Z,10.90
2022-09-27T09:41:16.467Z,11.00
2022-09-27T09:43:51.850Z,11.40
2022-09-27T09:46:25.763Z,11.70
2022-09-27T09:48:59.679Z,12.00
2022-09-27T09:51:34.476Z,12.30
2022-09-27T09:54:09.119Z,12.40
2022-09-27T09:56:45.731Z,12.60
2022-09-27T09:59:19.253Z,12.80
2022-09-27T10:01:50.464Z,13.10
2022-09-27T10:04:23.660Z,13.20
2022-09-27T10:06:54.636Z,12.90
2022-09-27T10:09:27.368Z,12.90
2022-09-27T10:12:16.717Z,13.10
2022-09-27T10:14:49.248Z,13.70
2022-09-27T10:17:21.175Z,14.10
2022-09-27T10:19:52.603Z,14.10
2022-09-27T10:22:28.256Z,14.10
2022-09-27T10:25:02.432Z,14.10
2022-09-27T10:27:46.578Z,13.80
2022-09-27T10:30:28.218Z,13.60
2022-09-27T10:33:01.145Z,13.20
2022-09-27T10:35:43.495Z,12.90
2022-09-27T10:38:27.098Z,12.60
2022-09-27T10:41:25.714Z,12.40
2022-09-27T10:44:21.863Z,12.30
2022-09-27T10:47:06.742Z,12.30
2022-09-27T10:50:05.098Z,12.50
2022-09-27T10:53:04.999Z,12.60
2022-09-27T10:55:36.116Z,12.90
2022-09-27T10:58:05.262Z,13.00
2022-09-27T11:00:36.426Z,13.10
2022-09-27T11:03:08.702Z,13.20
2022-09-27T11:05:39.781Z,13.30
2022-09-27T11:08:24.496Z,13.30
2022-09-27T11:11:05.017Z,13.00
2022-09-27T11:13:34.469Z,13.20
2022-09-27T11:16:22.382Z,13.50
2022-09-27T11:18:59.143Z,13.70
2022-09-27T11:21:45.321Z,13.80
2022-09-27T11:24:43.244Z,13.60
2022-09-27T11:27:25.465Z,13.40
2022-09-27T11:30:05.067Z,13.50
2022-09-27T11:33:09.072Z,13.30
2022-09-27T11:35:57.200Z,13.30
2022-09-27T11:38:51.542Z,13.30
2022-09-27T11:41:33.550Z,13.40
2022-09-27T11:44:27.437Z,13.30
2022-09-27T11:47:05.230Z,13.20
2022-09-27T11:50:04.048Z,13.20
2022-09-27T11:52:44.184Z,13.30
2022-09-27T11:55:21.381Z,13.30
2022-09-27T11:58:00.766Z,13.10
2022-09-27T12:00:42.238Z,13.00
2022-09-27T12:03:39.083Z,12.70
2022-09-27T12:06:14.249Z,11.70
2022-09-27T12:08:52.683Z,11.20
2022-09-27T12:11:24.835Z,10.80
2022-09-27T12:13:58.351Z,10.70
2022-09-27T12:16:27.924Z,10.60
2022-09-27T12:18:56.830Z,10.50
2022-09-27T12:21:48.736Z,10.30
2022-09-27T12:24:22.235Z,10.20
2022-09-27T12:27:09.590Z,10.10
2022-09-27T12:29:41.799Z,10.00
2022-09-27T12:32:18.446Z,10.00
2022-09-27T12:34:52.398Z,10.00
2022-09-27T12:37:26.982Z,10.00
2022-09-27T12:40:00.556Z,9.90
2022-09-27T12:42:37.562Z,9.90
2022-09-27T12:45:14.658Z,9.70
2022-09-27T12:48:02.936Z,9.90
2022-09-27T12:50:37.862Z,10.00
2022-09-27T12:53:14.515Z,10.10
2022-09-27T12:56:12.757Z,10.20
2022-09-27T12:58:57.545Z,10.30
2022-09-27T13:01:43.022Z,10.50
2022-09-27T13:04:39.954Z,10.60
2022-09-27T13:07:36.118Z,10.60
2022-09-27T13:10:39.380Z,10.70
2022-09-27T13:13:26.293Z,10.70
2022-09-27T13:15:58.615Z,10.80
2022-09-27T13:18:55.992Z,10.70
2022-09-27T13:22:01.031Z,10.60
2022-09-27T13:24:51.692Z,10.50
2022-09-27T13:27:43.648Z,10.60
2022-09-27T13:30:49.528Z,10.60
2022-09-27T13:33:45.224Z,10.40
2022-09-27T13:36:21.387Z,10.20
2022-09-27T13:39:21.102Z,10.20
2022-09-27T13:42:30.518Z,10.10
2022-09-27T13:45:21.072Z,10.20
2022-09-27T13:47:52.362Z,10.20
2022-09-27T13:50:31.017Z,10.30
2022-09-27T13:53:18.367Z,10.40
2022-09-27T13:55:47.805Z,10.60
2022-09-27T13:58:35.058Z,10.60
2022-09-27T14:01:16.716Z,10.60
2022-09-27T14:04:00.551Z,10.70
2022-09-27T14:06:35.110Z,10.60
2022-09-27T14:09:06.428Z,10.50
2022-09-27T14:11:39.420Z,10.20
2022-09-27T14:14:14.934Z,10.00
2022-09-27T14:16:48.023Z,10.00
2022-09-27T14:19:21.786Z,10.00
2022-09-27T14:22:12.989Z,10.00
2022-09-27T14:24:52.981Z,9.90
2022-09-27T14:27:37.361Z,9.80
2022-09-27T14:30:27.671Z,9.80
2022-09-27T14:33:04.834Z,9.80
2022-09-27T14:36:08.219Z,9.70
2022-09-27T14:38:38.915Z,10.00
2022-09-27T14:41:28.417Z,10.10
2022-09-27T14:43:56.384Z,10.10
2022-09-27T14:46:28.128Z,10.20
2022-09-27T14:48:56.428Z,10.30
2022-09-27T14:51:31.531Z,10.50
2022-09-27T14:54:04.280Z,10.80
2022-09-27T14:56:37.434Z,11.80
2022-09-27T14:59:11.352Z,12.70
2022-09-27T15:01:40.217Z,12.90
2022-09-27T15:04:14.628Z,13.00
2022-09-27T15:06:45.419Z,13.00
2022-09-27T15:09:15.993Z,12.80
2022-09-27T15:11:46.322Z,12.60
2022-09-27T15:14:16.865Z,12.50
2022-09-27T15:16:47.378Z,12.20
2022-09-27T15:19:18.775Z,12.20
2022-09-27T15:21:48.483Z,12.00
2022-09-27T15:24:38.054Z,11.90
2022-09-27T15:27:13.779Z,12.00
2022-09-27T15:29:41.734Z,12.10
2022-09-27T15:32:17.833Z,12.10
2022-09-27T15:34:46.043Z,12.20
2022-09-27T15:37:29.887Z,12.20
2022-09-27T15:40:08.009Z,12.10
2022-09-27T15:42:56.285Z,12.00
2022-09-27T15:45:29.973Z,11.90
2022-09-27T15:48:06.974Z,11.80
2022-09-27T15:50:41.908Z,11.80
2022-09-27T15:53:11.751Z,11.70
2022-09-27T15:55:43.249Z,11.60
2022-09-27T15:58:16.970Z,11.60
2022-09-27T16:00:55.657Z,11.50
2022-09-27T16:03:24.039Z,11.50
2022-09-27T16:05:52.014Z,11.40
2022-09-27T16:08:21.288Z,11.40
2022-09-27T16:10:52.033Z,11.40
2022-09-27T16:13:20.694Z,11.40
2022-09-27T16:15:49.388Z,11.20
2022-09-27T16:18:17.715Z,11.10
2022-09-27T16:20:45.882Z,11.10
2022-09-27T16:23:13.830Z,10.90
2022-09-27T16:25:43.128Z,10.90
2022-09-27T16:28:12.336Z,10.70
2022-09-27T16:30:40.188Z,10.60
2022-09-27T16:33:08.161Z,10.60
2022-09-27T16:35:36.113Z,10.50
2022-09-27T16:38:03.981Z,10.50
2022-09-27T16:40:32.013Z,10.60
2022-09-27T16:43:04.807Z,10.50
2022-09-27T16:45:36.457Z,10.50
2022-09-27T16:48:04.722Z,10.50
2022-09-27T16:50:50.475Z,10.50
2022-09-27T16:53:18.504Z,10.50
2022-09-27T16:55:46.435Z,10.50
2022-09-27T16:58:15.660Z,10.40
2022-09-27T17:00:44.020Z,10.40
2022-09-27T17:03:12.039Z,10.40
2022-09-27T17:05:39.855Z,10.30
2022-09-27T17:08:07.787Z,10.30
2022-09-27T17:10:38.583Z,10.30
2022-09-27T17:13:07.160Z,10.30
2022-09-27T17:15:38.059Z,10.30
2022-09-27T17:18:06.177Z,10.20
2022-09-27T17:20:34.028Z,10.30
2022-09-27T17:23:01.898Z,10.20
2022-09-27T17:25:30.281Z,10.10
2022-09-27T17:27:58.366Z,10.10
2022-09-27T17:30:26.414Z,10.10
2022-09-27T17:32:55.827Z,10.10
2022-09-27T17:35:23.641Z,10.10
2022-09-27T17:37:51.614Z,10.10
2022-09-27T17:40:19.585Z,10.10
2022-09-27T17:42:47.585Z,10.00
2022-09-27T17:45:15.435Z,9.90
2022-09-27T17:48:01.036Z,9.90
2022-09-27T17:50:30.286Z,10.00
2022-09-27T17:52:59.157Z,9.90
2022-09-27T17:55:27.495Z,9.90
2022-09-27T17:57:55.535Z,10.00
2022-09-27T18:00:23.490Z,9.90
2022-09-27T18:02:51.535Z,9.90
2022-09-27T18:05:21.163Z,10.00
2022-09-27T18:07:50.716Z,9.90
2022-09-27T18:10:18.650Z,9.80
2022-09-27T18:12:46.599Z,9.80
2022-09-27T18:15:18.270Z,9.80
2022-09-27T18:17:48.637Z,9.80
2022-09-27T18:20:17.804Z,9.80
2022-09-27T18:22:45.759Z,9.70
2022-09-27T18:25:15.134Z,9.70
2022-09-27T18:27:44.338Z,9.70
2022-09-27T18:30:12.848Z,9.70
2022-09-27T18:32:41.243Z,9.70
2022-09-27T18:35:09.888Z,9.70
2022-09-27T18:37:37.854Z,9.60
2022-09-27T18:40:06.584Z,9.60
2022-09-27T18:42:35.961Z,9.60
2022-09-27T18:45:06.053Z,9.60
2022-09-27T18:47:33.980Z,9.60
2022-09-27T18:50:01.944Z,9.60
2022-09-27T18:52:29.968Z,9.60
2022-09-27T18:54:59.289Z,9.50
2022-09-27T18:57:27.178Z,9.50
2022-09-27T18:59:56.687Z,9.40
2022-09-27T19:02:24.618Z,9.40
2022-09-27T19:04:52.506Z,9.40
2022-09-27T19:07:20.613Z,9.20
2022-09-27T19:09:49.292Z,9.10
2022-09-27T19:12:17.512Z,9.10
2022-09-27T19:14:45.502Z,9.00
2022-09-27T19:17:14.864Z,9.00
2022-09-27T19:19:42.874Z,8.90
2022-09-27T19:22:10.799Z,8.80
2022-09-27T19:24:38.759Z,8.80
2022-09-27T19:27:06.627Z,8.70
2022-09-27T19:29:36.235Z,8.70
2022-09-27T19:32:04.091Z,8.60
2022-09-27T19:34:33.473Z,8.50
2022-09-27T19:37:01.287Z,8.40
2022-09-27T19:39:29.244Z,8.40
2022-09-27T19:41:57.078Z,8.30
2022-09-27T19:44:25.957Z,8.30
2022-09-27T19:46:53.965Z,8.20
2022-09-27T19:49:21.855Z,8.10
2022-09-27T19:51:52.049Z,8.10
2022-09-27T19:54:19.977Z,8.10
2022-09-27T19:56:49.275Z,8.00
2022-09-27T19:59:17.414Z,8.00
2022-09-27T20:01:45.714Z,7.90
2022-09-27T20:04:14.126Z,7.90
2022-09-27T20:06:42.684Z,7.90
2022-09-27T20:09:12.374Z,7.90
2022-09-27T20:11:40.304Z,7.90
2022-09-27T20:14:08.418Z,7.80
2022-09-27T20:16:41.108Z,7.80
2022-09-27T20:19:09.796Z,7.80
2022-09-27T20:21:38.559Z,7.80
2022-09-27T20:24:06.901Z,7.80
2022-09-27T20:26:37.881Z,7.80
2022-09-27T20:29:07.485Z,7.80
2022-09-27T20:31:38.039Z,7.80
2022-09-27T20:34:07.549Z,7.80
2022-09-27T20:36:37.319Z,7.80
2022-09-27T20:39:07.581Z,7.80
2022-09-27T20:41:38.074Z,7.80
2022-09-27T20:44:08.248Z,7.80
2022-09-27T20:46:37.529Z,7.80
2022-09-27T20:49:07.958Z,7.80
2022-09-27T20:51:39.393Z,7.90
2022-09-27T20:54:09.308Z,7.90
2022-09-27T20:56:40.577Z,7.90
2022-09-27T20:59:15.024Z,7.90
2022-09-27T21:01:44.573Z,7.90
2022-09-27T21:04:14.295Z,8.00
2022-09-27T21:06:42.615Z,8.00
2022-09-27T21:09:16.895Z,8.00
2022-09-27T21:11:46.795Z,8.00
2022-09-27T21:14:14.869Z,8.10
2022-09-27T21:16:42.826Z,8.00
2022-09-27T21:19:10.847Z,8.00
2022-09-27T21:21:38.846Z,8.00
2022-09-27T21:24:06.988Z,8.00
2022-09-27T21:26:35.427Z,8.10
2022-09-27T21:29:08.532Z,8.10
2022-09-27T21:31:37.860Z,8.10
2022-09-27T21:34:07.254Z,8.10
2022-09-27T21:36:36.911Z,8.20
2022-09-27T21:39:05.478Z,8.20
2022-09-27T21:41:33.410Z,8.30
2022-09-27T21:44:05.887Z,8.30
2022-09-27T21:46:34.523Z,8.40
2022-09-27T21:49:03.143Z,8.40
2022-09-27T21:51:36.607Z,8.50
2022-09-27T21:54:06.419Z,8.50
2022-09-27T21:56:35.631Z,8.50
2022-09-27T21:59:05.901Z,8.50
2022-09-27T22:01:35.599Z,8.60
2022-09-27T22:04:06.375Z,8.60
2022-09-27T22:06:37.166Z,8.60
2022-09-27T22:09:07.007Z,8.60
2022-09-27T22:11:37.815Z,8.60
2022-09-27T22:14:07.902Z,8.60
2022-09-27T22:16:36.624Z,8.60
2022-09-27T22:19:05.272Z,8.60
2022-09-27T22:21:35.766Z,8.60
2022-09-27T22:24:07.965Z,8.60
2022-09-27T22:26:38.173Z,8.60
2022-09-27T22:29:08.306Z,8.60
2022-09-27T22:31:37.013Z,8.70
2022-09-27T22:34:07.348Z,8.70
2022-09-27T22:36:35.891Z,8.70
2022-09-27T22:39:04.531Z,8.70
2022-09-27T22:41:32.405Z,8.70
2022-09-27T22:44:01.185Z,8.70
2022-09-27T22:46:30.569Z,8.80
2022-09-27T22:48:58.754Z,8.80
2022-09-27T22:51:26.711Z,8.80
2022-09-27T22:53:54.512Z,8.70
2022-09-27T22:56:22.615Z,8.60
2022-09-27T22:58:51.221Z,8.60
2022-09-27T23:01:22.322Z,8.70
2022-09-27T23:03:53.686Z,8.70
2022-09-27T23:06:22.663Z,8.70
2022-09-27T23:08:51.318Z,8.70
2022-09-27T23:11:20.598Z,8.80
2022-09-27T23:13:49.916Z,8.80
2022-09-27T23:16:20.041Z,8.80
2022-09-27T23:18:48.589Z,8.80
2022-09-27T23:21:17.884Z,8.80
2022-09-27T23:23:47.012Z,8.80
2022-09-27T23:26:16.469Z,8.80
2022-09-27T23:28:44.530Z,8.80
2022-09-27T23:31:14.533Z,8.80
2022-09-27T23:33:44.291Z,8.80
2022-09-27T23:36:17.369Z,8.80
2022-09-27T23:38:45.999Z,8.80
2022-09-27T23:41:15.124Z,8.70
2022-09-27T23:43:43.181Z,8.80
2022-09-27T23:46:12.114Z,8.80
2022-09-27T23:48:40.148Z,8.80
2022-09-27T23:51:10.267Z,8.80
2022-09-27T23:53:40.456Z,8.80
2022-09-27T23:56:11.107Z,8.80
2022-09-27T23:58:41.717Z,8.80
